createdAt,value
2023-04-03T00:00:25.860Z,24.94
2023-04-03T00:02:52.568Z,24.92
2023-04-03T00:05:19.172Z,24.65
2023-04-03T00:07:45.705Z,24.89
2023-04-03T00:10:12.792Z,24.88
2023-04-03T00:12:39.379Z,24.78
2023-04-03T00:15:06.385Z,24.86
2023-04-03T00:17:33.085Z,24.87
2023-04-03T00:19:59.884Z,24.59
2023-04-03T00:22:27.638Z,24.84
2023-04-03T00:24:54.206Z,24.71
2023-04-03T00:27:20.809Z,24.66
2023-04-03T00:29:47.400Z,24.94
2023-04-03T00:32:14.071Z,24.95
2023-04-03T00:34:40.675Z,24.97
2023-04-03T00:37:07.202Z,25.05
2023-04-03T00:39:33.745Z,24.96
2023-04-03T00:42:00.271Z,24.99
2023-04-03T00:44:36.096Z,25.01
2023-04-03T00:47:03.215Z,24.89
2023-04-03T00:49:29.748Z,24.97
2023-04-03T00:51:56.595Z,24.91
2023-04-03T00:54:23.087Z,24.76
2023-04-03T00:56:50.315Z,24.91
2023-04-03T00:59:22.223Z,24.90
2023-04-03T01:01:49.242Z,24.87
2023-04-03T01:04:32.278Z,24.91
2023-04-03T01:07:01.724Z,24.92
2023-04-03T01:09:28.841Z,24.94
2023-04-03T01:11:55.659Z,24.93
2023-04-03T01:14:22.427Z,24.91
2023-04-03T01:16:55.545Z,24.50
2023-04-03T01:19:22.455Z,24.57
2023-04-03T01:21:55.252Z,24.82
2023-04-03T01:24:31.107Z,24.98
2023-04-03T01:26:57.653Z,24.84
2023-04-03T01:29:24.214Z,24.96
2023-04-03T01:31:58.367Z,24.91
2023-04-03T01:34:25.375Z,24.74
2023-04-03T01:36:53.044Z,24.80
2023-04-03T01:39:20.984Z,24.81
2023-04-03T01:41:48.030Z,24.79
2023-04-03T01:44:21.294Z,24.78
2023-04-03T01:46:48.661Z,24.77
2023-04-03T01:49:15.338Z,24.76
2023-04-03T01:51:41.887Z,24.74
2023-04-03T01:54:08.720Z,24.74
2023-04-03T01:56:35.428Z,24.74
2023-04-03T01:59:02.034Z,24.75
2023-04-03T02:01:28.899Z,24.79
2023-04-03T02:03:55.667Z,24.65
2023-04-03T02:06:22.255Z,24.72
2023-04-03T02:08:48.804Z,24.68
2023-04-03T02:11:15.349Z,24.63
2023-04-03T02:13:41.915Z,24.61
2023-04-03T02:16:10.785Z,24.66
2023-04-03T02:18:37.498Z,24.64
2023-04-03T02:21:04.181Z,24.59
2023-04-03T02:23:30.864Z,24.72
2023-04-03T02:26:11.115Z,24.65
2023-04-03T02:28:37.908Z,24.65
2023-04-03T02:31:04.870Z,24.63
2023-04-03T02:33:31.846Z,24.71
2023-04-03T02:35:58.826Z,24.68
2023-04-03T02:38:25.389Z,24.66
2023-04-03T02:40:52.902Z,24.64
2023-04-03T02:43:19.499Z,24.61
2023-04-03T02:45:46.342Z,24.64
2023-04-03T02:48:13.306Z,24.60
2023-04-03T02:50:39.885Z,24.60
2023-04-03T02:53:06.464Z,24.60
2023-04-03T02:55:33.219Z,24.61
2023-04-03T02:57:59.891Z,24.55
2023-04-03T03:00:26.572Z,24.64
2023-04-03T03:02:53.211Z,24.60
2023-04-03T03:05:20.048Z,24.48
2023-04-03T03:07:46.719Z,24.49
2023-04-03T03:10:13.276Z,24.54
2023-04-03T03:12:39.794Z,24.54
2023-04-03T03:15:08.460Z,24.57
2023-04-03T03:17:35.316Z,24.57
2023-04-03T03:20:01.903Z,24.58
2023-04-03T03:22:31.081Z,24.56
2023-04-03T03:24:58.353Z,24.46
2023-04-03T03:27:25.616Z,24.55
2023-04-03T03:29:52.191Z,24.57
2023-04-03T03:32:18.973Z,24.59
2023-04-03T03:34:45.687Z,24.62
2023-04-03T03:37:12.234Z,24.64
2023-04-03T03:39:38.872Z,24.65
2023-04-03T03:42:05.485Z,24.45
2023-04-03T03:44:32.161Z,24.79
2023-04-03T03:46:58.894Z,24.56
2023-04-03T03:49:25.768Z,24.69
2023-04-03T03:51:52.739Z,24.69
2023-04-03T03:54:19.419Z,24.57
2023-04-03T03:56:46.127Z,24.63
2023-04-03T03:59:13.528Z,24.57
2023-04-03T04:01:40.944Z,24.58
2023-04-03T04:04:08.225Z,24.60
2023-04-03T04:06:34.949Z,24.49
2023-04-03T04:09:04.653Z,24.56
2023-04-03T04:11:31.362Z,24.60
2023-04-03T04:13:58.081Z,24.54
2023-04-03T04:16:27.508Z,24.54
2023-04-03T04:18:56.067Z,24.60
2023-04-03T04:21:23.841Z,24.55
2023-04-03T04:23:52.717Z,24.48
2023-04-03T04:26:21.162Z,24.50
2023-04-03T04:28:47.993Z,24.59
2023-04-03T04:31:15.349Z,24.54
2023-04-03T04:33:41.998Z,24.35
2023-04-03T04:36:11.781Z,24.55
2023-04-03T04:38:39.419Z,24.56
2023-04-03T04:41:06.055Z,24.60
2023-04-03T04:43:32.861Z,24.60
2023-04-03T04:46:04.149Z,24.59
2023-04-03T04:48:34.263Z,24.62
2023-04-03T04:51:01.537Z,24.67
2023-04-03T04:53:28.798Z,24.79
2023-04-03T04:55:55.596Z,24.67
2023-04-03T04:58:22.517Z,24.76
2023-04-03T05:00:49.167Z,24.61
2023-04-03T05:03:16.482Z,24.63
2023-04-03T05:05:43.990Z,24.41
2023-04-03T05:08:10.867Z,24.60
2023-04-03T05:10:41.751Z,24.46
2023-04-03T05:13:08.515Z,24.59
2023-04-03T05:15:35.503Z,24.60
2023-04-03T05:18:03.378Z,24.63
2023-04-03T05:20:30.186Z,24.65
2023-04-03T05:22:56.806Z,24.53
2023-04-03T05:25:23.361Z,24.50
2023-04-03T05:27:53.344Z,24.47
2023-04-03T05:30:20.117Z,24.60
2023-04-03T05:32:47.632Z,24.64
2023-04-03T05:35:30.065Z,24.49
2023-04-03T05:37:59.251Z,24.68
2023-04-03T05:40:26.592Z,24.60
2023-04-03T05:42:55.794Z,24.55
2023-04-03T05:45:24.705Z,24.22
2023-04-03T05:47:51.695Z,24.46
2023-04-03T05:50:18.367Z,24.43
2023-04-03T05:52:45.754Z,24.32
2023-04-03T05:55:13.436Z,24.35
2023-04-03T05:57:40.429Z,24.46
2023-04-03T06:00:08.195Z,24.48
2023-04-03T06:02:40.863Z,24.32
2023-04-03T06:05:12.523Z,24.45
2023-04-03T06:07:39.133Z,24.34
2023-04-03T06:10:06.461Z,24.43
2023-04-03T06:12:33.179Z,24.44
2023-04-03T06:14:59.824Z,24.45
2023-04-03T06:17:28.051Z,24.48
2023-04-03T06:19:54.775Z,24.50
2023-04-03T06:22:22.221Z,24.40
2023-04-03T06:24:48.798Z,24.53
2023-04-03T06:27:15.731Z,24.53
2023-04-03T06:29:42.394Z,24.57
2023-04-03T06:32:08.958Z,24.55
2023-04-03T06:34:36.348Z,24.56
2023-04-03T06:37:03.162Z,24.43
2023-04-03T06:39:30.308Z,24.53
2023-04-03T06:41:56.898Z,24.57
2023-04-03T06:44:35.531Z,24.58
2023-04-03T06:47:02.119Z,24.57
2023-04-03T06:49:29.848Z,24.58
2023-04-03T06:51:57.179Z,24.56
2023-04-03T06:54:24.001Z,24.53
2023-04-03T06:56:51.337Z,24.62
2023-04-03T06:59:18.057Z,24.62
2023-04-03T07:01:44.839Z,24.64
2023-04-03T07:04:11.807Z,24.40
2023-04-03T07:06:38.454Z,24.62
2023-04-03T07:09:05.052Z,24.60
2023-04-03T07:11:31.641Z,24.62
2023-04-03T07:13:58.591Z,24.63
2023-04-03T07:16:25.305Z,24.63
2023-04-03T07:18:52.089Z,24.62
2023-04-03T07:21:18.669Z,24.55
2023-04-03T07:23:46.053Z,24.64
2023-04-03T07:26:12.694Z,24.70
2023-04-03T07:28:41.136Z,24.77
2023-04-03T07:31:09.692Z,24.83
2023-04-03T07:33:36.768Z,24.93
2023-04-03T07:36:03.738Z,25.01
2023-04-03T07:38:30.401Z,25.05
2023-04-03T07:40:57.011Z,24.90
2023-04-03T07:43:25.704Z,25.09
2023-04-03T07:45:52.497Z,24.99
2023-04-03T07:48:20.143Z,25.03
2023-04-03T07:50:47.261Z,25.02
2023-04-03T07:53:13.921Z,24.93
2023-04-03T07:55:44.098Z,24.69
2023-04-03T07:58:15.666Z,24.78
2023-04-03T08:00:42.232Z,25.04
2023-04-03T08:03:11.371Z,25.10
2023-04-03T08:05:40.684Z,25.05
2023-04-03T08:08:07.889Z,24.91
2023-04-03T08:10:35.035Z,25.08
2023-04-03T08:13:02.005Z,25.08
2023-04-03T08:15:28.780Z,25.10
2023-04-03T08:17:55.840Z,25.03
2023-04-03T08:20:22.703Z,24.98
2023-04-03T08:22:49.376Z,24.90
2023-04-03T08:25:16.197Z,24.88
2023-04-03T08:27:42.777Z,24.89
2023-04-03T08:30:09.991Z,24.81
2023-04-03T08:32:37.459Z,24.93
2023-04-03T08:35:07.338Z,24.90
2023-04-03T08:37:37.047Z,24.99
2023-04-03T08:40:05.473Z,24.99
2023-04-03T08:42:45.680Z,24.98
2023-04-03T08:45:26.296Z,24.78
2023-04-03T08:47:57.527Z,24.71
2023-04-03T08:50:36.059Z,24.70
2023-04-03T08:53:03.100Z,24.69
2023-04-03T08:55:32.780Z,24.67
2023-04-03T08:58:03.280Z,24.73
2023-04-03T09:00:35.276Z,24.88
2023-04-03T09:03:01.955Z,24.94
2023-04-03T09:06:04.796Z,25.06
2023-04-03T09:08:33.007Z,24.89
2023-04-03T09:11:19.770Z,24.92
2023-04-03T09:13:57.878Z,24.89
2023-04-03T09:16:30.418Z,24.90
2023-04-03T09:19:18.790Z,24.89
2023-04-03T09:21:45.681Z,24.90
2023-04-03T09:24:14.598Z,24.82
2023-04-03T09:27:11.140Z,24.83
2023-04-03T09:29:40.512Z,24.79
2023-04-03T09:32:29.341Z,24.74
2023-04-03T09:34:59.695Z,24.84
2023-04-03T09:37:49.490Z,24.98
2023-04-03T09:40:36.719Z,24.97
2023-04-03T09:43:23.343Z,25.03
2023-04-03T09:45:50.976Z,25.01
2023-04-03T09:48:21.904Z,25.07
2023-04-03T09:51:11.812Z,25.11
2023-04-03T09:53:40.099Z,25.11
2023-04-03T09:56:18.904Z,25.06
2023-04-03T09:58:50.925Z,25.13
2023-04-03T10:01:33.802Z,25.11
2023-04-03T10:04:19.602Z,25.01
2023-04-03T10:06:53.813Z,25.09
2023-04-03T10:09:25.015Z,25.13
2023-04-03T10:12:13.245Z,25.17
2023-04-03T10:14:41.563Z,25.16
2023-04-03T10:17:35.739Z,25.26
2023-04-03T10:20:22.303Z,25.08
2023-04-03T10:23:12.132Z,25.15
2023-04-03T10:25:50.150Z,25.14
2023-04-03T10:28:33.164Z,25.16
2023-04-03T10:31:08.463Z,25.16
2023-04-03T10:33:54.361Z,25.16
2023-04-03T10:36:26.589Z,25.14
2023-04-03T10:39:04.359Z,25.22
2023-04-03T10:42:17.621Z,25.22
2023-04-03T10:44:56.585Z,25.18
2023-04-03T10:47:38.035Z,25.18
2023-04-03T10:50:14.257Z,25.20
2023-04-03T10:52:43.965Z,25.24
2023-04-03T10:55:16.652Z,25.28
2023-04-03T10:57:43.620Z,25.25
2023-04-03T11:00:21.153Z,25.19
2023-04-03T11:03:04.968Z,25.19
2023-04-03T11:05:44.844Z,25.05
2023-04-03T11:08:35.347Z,25.17
2023-04-03T11:11:07.021Z,25.10
2023-04-03T11:13:43.687Z,25.13
2023-04-03T11:16:10.485Z,25.17
2023-04-03T11:18:49.985Z,25.17
2023-04-03T11:21:42.062Z,25.20
2023-04-03T11:24:17.024Z,25.18
2023-04-03T11:26:43.630Z,25.16
2023-04-03T11:29:20.734Z,25.15
2023-04-03T11:32:19.468Z,25.18
2023-04-03T11:34:47.311Z,25.14
2023-04-03T11:37:24.252Z,25.17
2023-04-03T11:39:57.684Z,25.09
2023-04-03T11:42:59.882Z,25.20
2023-04-03T11:45:26.371Z,25.19
2023-04-03T11:47:57.398Z,25.07
2023-04-03T11:50:36.201Z,25.19
2023-04-03T11:53:07.363Z,25.19
2023-04-03T11:55:34.013Z,24.97
2023-04-03T11:58:00.679Z,25.17
2023-04-03T12:00:50.754Z,25.19
2023-04-03T12:03:26.707Z,25.16
2023-04-03T12:06:05.863Z,25.27
2023-04-03T12:08:44.485Z,25.30
2023-04-03T12:11:11.408Z,25.25
2023-04-03T12:13:50.411Z,25.28
2023-04-03T12:16:27.426Z,25.22
2023-04-03T12:18:54.087Z,25.27
2023-04-03T12:21:30.466Z,25.22
2023-04-03T12:24:13.727Z,25.17
2023-04-03T12:26:47.982Z,25.27
2023-04-03T12:29:22.787Z,25.25
2023-04-03T12:32:04.897Z,25.22
2023-04-03T12:34:34.349Z,25.24
2023-04-03T12:37:13.720Z,25.26
2023-04-03T12:39:52.087Z,25.17
2023-04-03T12:42:43.664Z,25.25
2023-04-03T12:45:16.204Z,25.25
2023-04-03T12:47:43.601Z,25.17
2023-04-03T12:50:31.374Z,24.82
2023-04-03T12:53:03.841Z,24.53
2023-04-03T12:55:30.610Z,24.72
2023-04-03T12:57:57.279Z,24.92
2023-04-03T13:00:33.286Z,25.03
2023-04-03T13:03:00.925Z,24.70
2023-04-03T13:05:27.706Z,25.17
2023-04-03T13:07:59.149Z,25.24
2023-04-03T13:10:25.946Z,25.35
2023-04-03T13:12:57.860Z,25.22
2023-04-03T13:15:30.306Z,25.34
2023-04-03T13:17:57.595Z,25.44
2023-04-03T13:20:29.572Z,25.35
2023-04-03T13:23:06.662Z,25.52
2023-04-03T13:25:34.921Z,25.53
2023-04-03T13:28:12.654Z,25.47
2023-04-03T13:30:41.322Z,25.24
2023-04-03T13:33:21.548Z,25.46
2023-04-03T13:35:48.268Z,25.21
2023-04-03T13:38:17.809Z,25.27
2023-04-03T13:40:54.942Z,25.17
2023-04-03T13:43:26.429Z,25.21
2023-04-03T13:46:02.474Z,25.15
2023-04-03T13:48:35.391Z,25.18
2023-04-03T13:51:16.021Z,25.17
2023-04-03T13:53:45.285Z,25.22
2023-04-03T13:56:27.495Z,25.19
2023-04-03T13:59:06.776Z,25.27
2023-04-03T14:01:56.152Z,25.19
2023-04-03T14:04:28.850Z,25.25
2023-04-03T14:06:55.659Z,25.04
2023-04-03T14:09:22.945Z,25.04
2023-04-03T14:11:51.661Z,25.11
2023-04-03T14:14:23.626Z,25.12
2023-04-03T14:16:56.483Z,25.13
2023-04-03T14:19:23.026Z,25.19
2023-04-03T14:21:51.720Z,25.18
2023-04-03T14:24:18.272Z,25.34
2023-04-03T14:26:45.003Z,25.35
2023-04-03T14:29:12.282Z,25.38
2023-04-03T14:31:39.222Z,25.46
2023-04-03T14:34:05.941Z,25.54
2023-04-03T14:36:32.894Z,25.59
2023-04-03T14:39:00.282Z,25.63
2023-04-03T14:41:30.098Z,25.61
2023-04-03T14:43:56.739Z,25.68
2023-04-03T14:46:48.230Z,25.67
2023-04-03T14:49:22.392Z,25.55
2023-04-03T14:51:48.992Z,25.63
2023-04-03T14:54:17.600Z,25.67
2023-04-03T14:56:45.662Z,25.67
2023-04-03T14:59:12.958Z,25.68
2023-04-03T15:01:42.395Z,25.66
2023-04-03T15:04:20.164Z,25.77
2023-04-03T15:06:47.327Z,25.80
2023-04-03T15:09:25.911Z,25.89
2023-04-03T15:11:53.075Z,25.69
2023-04-03T15:14:29.903Z,25.95
2023-04-03T15:17:07.210Z,25.97
2023-04-03T15:19:38.886Z,26.02
2023-04-03T15:22:05.591Z,25.93
2023-04-03T15:24:32.215Z,25.98
2023-04-03T15:26:58.787Z,26.02
2023-04-03T15:29:25.357Z,26.04
2023-04-03T15:31:54.572Z,26.02
2023-04-03T15:34:22.780Z,25.93
2023-04-03T15:36:51.089Z,25.94
2023-04-03T15:39:17.848Z,25.88
2023-04-03T15:41:45.211Z,25.95
2023-04-03T15:44:13.119Z,26.06
2023-04-03T15:46:39.923Z,26.06
2023-04-03T15:49:06.700Z,26.02
2023-04-03T15:51:33.343Z,26.09
2023-04-03T15:53:59.982Z,26.09
2023-04-03T15:56:26.580Z,26.08
2023-04-03T15:58:53.107Z,26.13
2023-04-03T16:01:19.762Z,26.26
2023-04-03T16:03:46.667Z,26.36
2023-04-03T16:06:14.789Z,26.07
2023-04-03T16:08:41.582Z,26.24
2023-04-03T16:11:08.220Z,26.16
2023-04-03T16:13:36.013Z,25.96
2023-04-03T16:16:02.876Z,26.10
2023-04-03T16:18:29.653Z,26.10
2023-04-03T16:20:56.459Z,26.16
2023-04-03T16:23:23.441Z,26.14
2023-04-03T16:25:50.760Z,26.00
2023-04-03T16:28:18.337Z,26.09
2023-04-03T16:30:45.717Z,26.25
2023-04-03T16:33:12.491Z,26.29
2023-04-03T16:35:39.590Z,26.41
2023-04-03T16:38:06.534Z,26.48
2023-04-03T16:40:34.765Z,26.53
2023-04-03T16:43:04.306Z,26.57
2023-04-03T16:45:31.091Z,26.57
2023-04-03T16:47:57.811Z,26.61
2023-04-03T16:50:24.571Z,26.57
2023-04-03T16:52:51.307Z,26.65
2023-04-03T16:55:18.153Z,26.30
2023-04-03T16:57:44.857Z,26.59
2023-04-03T17:00:12.035Z,26.54
2023-04-03T17:02:40.347Z,26.51
2023-04-03T17:05:07.714Z,26.44
2023-04-03T17:07:34.338Z,26.39
2023-04-03T17:10:01.094Z,26.37
2023-04-03T17:12:27.764Z,25.98
2023-04-03T17:14:54.289Z,26.28
2023-04-03T17:17:22.841Z,26.09
2023-04-03T17:19:49.611Z,25.96
2023-04-03T17:22:17.588Z,26.15
2023-04-03T17:24:44.867Z,25.85
2023-04-03T17:27:11.664Z,26.04
2023-04-03T17:29:38.357Z,26.01
2023-04-03T17:32:05.112Z,25.86
2023-04-03T17:34:33.580Z,25.89
2023-04-03T17:37:00.329Z,25.79
2023-04-03T17:39:27.083Z,25.84
2023-04-03T17:41:55.045Z,25.75
2023-04-03T17:44:22.174Z,25.57
2023-04-03T17:46:51.825Z,25.81
2023-04-03T17:49:22.500Z,25.74
2023-04-03T17:51:49.582Z,25.79
2023-04-03T17:54:16.970Z,25.75
2023-04-03T17:56:48.069Z,25.76
2023-04-03T17:59:16.598Z,25.76
2023-04-03T18:01:44.457Z,25.65
2023-04-03T18:04:11.261Z,25.73
2023-04-03T18:06:45.752Z,25.62
2023-04-03T18:09:17.751Z,25.62
2023-04-03T18:11:44.917Z,25.59
2023-04-03T18:14:12.105Z,25.63
2023-04-03T18:16:38.980Z,25.67
2023-04-03T18:19:21.928Z,25.63
2023-04-03T18:21:52.306Z,25.62
2023-04-03T18:24:19.604Z,25.62
2023-04-03T18:26:47.595Z,25.44
2023-04-03T18:29:14.299Z,25.56
2023-04-03T18:31:41.821Z,25.61
2023-04-03T18:34:08.466Z,25.60
2023-04-03T18:36:35.789Z,25.61
2023-04-03T18:39:03.814Z,25.59
2023-04-03T18:41:31.986Z,25.47
2023-04-03T18:43:59.632Z,25.58
2023-04-03T18:46:28.506Z,25.56
2023-04-03T18:48:56.296Z,25.53
2023-04-03T18:51:23.580Z,25.31
2023-04-03T18:53:50.501Z,25.54
2023-04-03T18:56:17.362Z,25.56
2023-04-03T18:58:44.207Z,25.31
2023-04-03T19:01:11.070Z,25.49
2023-04-03T19:03:38.007Z,25.44
2023-04-03T19:06:05.189Z,25.32
2023-04-03T19:08:31.860Z,25.53
2023-04-03T19:10:58.644Z,25.52
2023-04-03T19:13:31.043Z,25.36
2023-04-03T19:15:59.286Z,25.52
2023-04-03T19:18:27.673Z,25.51
2023-04-03T19:20:54.751Z,25.52
2023-04-03T19:23:26.113Z,25.51
2023-04-03T19:26:00.894Z,25.53
2023-04-03T19:28:27.674Z,25.52
2023-04-03T19:30:58.149Z,25.54
2023-04-03T19:33:25.130Z,25.50
2023-04-03T19:35:52.009Z,25.42
2023-04-03T19:38:18.744Z,25.48
2023-04-03T19:40:45.678Z,25.50
2023-04-03T19:43:13.216Z,25.48
2023-04-03T19:45:40.466Z,25.53
2023-04-03T19:48:07.462Z,25.48
2023-04-03T19:50:34.305Z,25.51
2023-04-03T19:53:01.768Z,25.30
2023-04-03T19:55:31.788Z,25.50
2023-04-03T19:57:59.693Z,25.45
2023-04-03T20:00:26.696Z,25.50
2023-04-03T20:02:53.489Z,25.48
2023-04-03T20:05:20.905Z,25.45
2023-04-03T20:07:48.640Z,25.36
2023-04-03T20:10:15.630Z,25.42
2023-04-03T20:12:42.775Z,25.47
2023-04-03T20:15:10.419Z,25.26
2023-04-03T20:17:37.111Z,25.45
2023-04-03T20:20:04.487Z,25.40
2023-04-03T20:22:32.302Z,25.28
2023-04-03T20:25:05.986Z,25.39
2023-04-03T20:27:33.757Z,25.38
2023-04-03T20:30:02.980Z,25.25
2023-04-03T20:32:30.457Z,25.35
2023-04-03T20:35:03.288Z,25.25
2023-04-03T20:37:30.547Z,25.36
2023-04-03T20:39:57.212Z,25.38
2023-04-03T20:42:23.775Z,25.08
2023-04-03T20:44:50.886Z,25.00
2023-04-03T20:47:17.588Z,25.26
2023-04-03T20:49:45.097Z,25.25
2023-04-03T20:52:11.836Z,25.29
2023-04-03T20:54:39.546Z,25.32
2023-04-03T20:57:06.209Z,25.06
2023-04-03T20:59:34.047Z,25.11
2023-04-03T21:02:00.925Z,24.86
2023-04-03T21:04:45.207Z,25.14
2023-04-03T21:07:49.458Z,25.30
2023-04-03T21:10:54.108Z,25.27
2023-04-03T21:13:57.947Z,25.24
2023-04-03T21:16:24.599Z,25.11
2023-04-03T21:18:59.344Z,25.09
2023-04-03T21:21:27.986Z,25.13
2023-04-03T21:23:54.887Z,25.12
2023-04-03T21:26:21.804Z,25.04
2023-04-03T21:28:50.268Z,24.88
2023-04-03T21:31:16.984Z,25.08
2023-04-03T21:33:43.728Z,25.05
2023-04-03T21:36:10.409Z,25.07
2023-04-03T21:38:37.491Z,25.02
2023-04-03T21:41:04.187Z,25.01
2023-04-03T21:43:30.913Z,25.05
2023-04-03T21:45:58.546Z,25.02
2023-04-03T21:48:25.827Z,24.96
2023-04-03T21:50:53.720Z,24.85
2023-04-03T21:53:23.654Z,24.92
2023-04-03T21:55:54.343Z,24.68
2023-04-03T21:58:21.241Z,24.93
2023-04-03T22:00:47.889Z,24.97
2023-04-03T22:03:19.989Z,24.84
2023-04-03T22:05:46.641Z,24.91
2023-04-03T22:08:13.916Z,24.93
2023-04-03T22:10:41.496Z,24.94
2023-04-03T22:13:08.413Z,24.92
2023-04-03T22:15:43.868Z,24.91
2023-04-03T22:18:10.938Z,24.79
2023-04-03T22:20:37.945Z,24.85
2023-04-03T22:23:05.812Z,24.91
2023-04-03T22:25:32.874Z,24.87
2023-04-03T22:27:59.437Z,24.88
2023-04-03T22:30:26.257Z,24.95
2023-04-03T22:32:52.913Z,24.93
2023-04-03T22:35:19.559Z,24.89
2023-04-03T22:37:46.107Z,24.71
2023-04-03T22:40:13.596Z,24.89
2023-04-03T22:42:40.210Z,24.82
2023-04-03T22:45:07.317Z,24.91
2023-04-03T22:47:33.852Z,24.89
2023-04-03T22:50:00.410Z,24.88
2023-04-03T22:52:26.968Z,24.87
2023-04-03T22:54:53.539Z,24.86
2023-04-03T22:57:20.490Z,24.79
2023-04-03T22:59:47.192Z,24.86
2023-04-03T23:02:13.742Z,24.75
2023-04-03T23:04:40.454Z,24.70
2023-04-03T23:07:07.227Z,24.86
2023-04-03T23:09:33.824Z,24.46
2023-04-03T23:12:00.377Z,24.65
2023-04-03T23:14:26.945Z,24.86
2023-04-03T23:16:53.545Z,24.86
2023-04-03T23:19:20.884Z,24.90
2023-04-03T23:21:48.003Z,24.87
2023-04-03T23:24:15.878Z,24.87
2023-04-03T23:26:42.425Z,24.86
2023-04-03T23:29:08.995Z,24.71
2023-04-03T23:31:35.610Z,24.60
2023-04-03T23:34:02.203Z,24.63
2023-04-03T23:36:28.823Z,24.79
2023-04-03T23:38:58.514Z,24.76
2023-04-03T23:41:25.171Z,24.68
2023-04-03T23:43:51.926Z,24.75
2023-04-03T23:46:19.718Z,24.78
2023-04-03T23:48:46.377Z,24.79
2023-04-03T23:51:12.945Z,24.62
2023-04-03T23:53:39.553Z,24.71
2023-04-03T23:56:11.368Z,24.78
2023-04-03T23:58:38.189Z,24.72
